sensor_id;sensor_type;location;lat;lon;timestamp;P1;durP1;ratioP1;P2;durP2;ratioP2
71600;SDS011;59446;52.192;4.628;2022-11-20T00:02:24;3.40;;;1.23;;
71600;SDS011;59446;52.192;4.628;2022-11-20T00:04:49;5.77;;;1.70;;
71600;SDS011;59446;52.192;4.628;2022-11-20T00:07:14;2.67;;;1.13;;
71600;SDS011;59446;52.192;4.628;2022-11-20T00:09:40;2.00;;;1.13;;
71600;SDS011;59446;52.192;4.628;2022-11-20T00:12:05;2.30;;;1.00;;
71600;SDS011;59446;52.192;4.628;2022-11-20T00:14:31;3.43;;;1.27;;
71600;SDS011;59446;52.192;4.628;2022-11-20T00:16:56;2.53;;;1.20;;
71600;SDS011;59446;52.192;4.628;2022-11-20T00:19:21;2.67;;;1.20;;
71600;SDS011;59446;52.192;4.628;2022-11-20T00:21:47;1.93;;;1.00;;
71600;SDS011;59446;52.192;4.628;2022-11-20T00:24:12;2.13;;;0.98;;
71600;SDS011;59446;52.192;4.628;2022-11-20T00:26:38;2.50;;;1.27;;
71600;SDS011;59446;52.192;4.628;2022-11-20T00:29:03;2.47;;;1.13;;
71600;SDS011;59446;52.192;4.628;2022-11-20T00:31:29;2.63;;;1.17;;
71600;SDS011;59446;52.192;4.628;2022-11-20T00:33:55;2.27;;;1.00;;
71600;SDS011;59446;52.192;4.628;2022-11-20T00:36:22;2.83;;;1.10;;
71600;SDS011;59446;52.192;4.628;2022-11-20T00:38:52;1.50;;;0.90;;
71600;SDS011;59446;52.192;4.628;2022-11-20T00:41:23;2.17;;;1.10;;
71600;SDS011;59446;52.192;4.628;2022-11-20T00:43:50;2.22;;;1.25;;
71600;SDS011;59446;52.192;4.628;2022-11-20T00:46:17;4.23;;;1.50;;
71600;SDS011;59446;52.192;4.628;2022-11-20T00:48:44;2.95;;;1.20;;
71600;SDS011;59446;52.192;4.628;2022-11-20T00:51:11;2.17;;;1.20;;
71600;SDS011;59446;52.192;4.628;2022-11-20T00:53:38;2.63;;;1.20;;
71600;SDS011;59446;52.192;4.628;2022-11-20T00:56:05;1.90;;;1.30;;
71600;SDS011;59446;52.192;4.628;2022-11-20T00:58:32;2.77;;;1.10;;
71600;SDS011;59446;52.192;4.628;2022-11-20T01:01:00;2.22;;;1.08;;
71600;SDS011;59446;52.192;4.628;2022-11-20T01:03:27;1.60;;;1.00;;
71600;SDS011;59446;52.192;4.628;2022-11-20T01:05:58;1.83;;;0.97;;
71600;SDS011;59446;52.192;4.628;2022-11-20T01:08:24;2.67;;;0.90;;
71600;SDS011;59446;52.192;4.628;2022-11-20T01:10:50;2.47;;;1.13;;
71600;SDS011;59446;52.192;4.628;2022-11-20T01:13:15;1.70;;;0.97;;
71600;SDS011;59446;52.192;4.628;2022-11-20T01:16:18;2.67;;;1.23;;
71600;SDS011;59446;52.192;4.628;2022-11-20T01:18:50;3.17;;;1.15;;
71600;SDS011;59446;52.192;4.628;2022-11-20T01:21:20;2.83;;;1.13;;
71600;SDS011;59446;52.192;4.628;2022-11-20T01:23:48;1.75;;;1.10;;
71600;SDS011;59446;52.192;4.628;2022-11-20T01:26:17;1.75;;;1.00;;
71600;SDS011;59446;52.192;4.628;2022-11-20T01:28:45;2.47;;;1.10;;
71600;SDS011;59446;52.192;4.628;2022-11-20T01:31:24;2.70;;;1.20;;
71600;SDS011;59446;52.192;4.628;2022-11-20T01:33:52;1.52;;;0.80;;
71600;SDS011;59446;52.192;4.628;2022-11-20T01:36:19;1.77;;;0.90;;
71600;SDS011;59446;52.192;4.628;2022-11-20T01:38:46;3.13;;;1.10;;
71600;SDS011;59446;52.192;4.628;2022-11-20T01:41:12;2.60;;;0.85;;
71600;SDS011;59446;52.192;4.628;2022-11-20T01:43:59;1.77;;;1.10;;
71600;SDS011;59446;52.192;4.628;2022-11-20T01:46:24;2.65;;;1.20;;
71600;SDS011;59446;52.192;4.628;2022-11-20T01:48:51;3.27;;;1.40;;
71600;SDS011;59446;52.192;4.628;2022-11-20T01:51:35;2.75;;;1.45;;
71600;SDS011;59446;52.192;4.628;2022-11-20T01:54:16;2.25;;;0.93;;
71600;SDS011;59446;52.192;4.628;2022-11-20T01:56:47;1.67;;;1.00;;
71600;SDS011;59446;52.192;4.628;2022-11-20T01:59:16;2.45;;;1.17;;
71600;SDS011;59446;52.192;4.628;2022-11-20T02:01:44;2.15;;;1.20;;
71600;SDS011;59446;52.192;4.628;2022-11-20T02:04:10;2.67;;;1.00;;
71600;SDS011;59446;52.192;4.628;2022-11-20T02:06:39;2.60;;;1.00;;
71600;SDS011;59446;52.192;4.628;2022-11-20T02:09:14;1.97;;;1.10;;
71600;SDS011;59446;52.192;4.628;2022-11-20T02:11:40;2.33;;;0.82;;
71600;SDS011;59446;52.192;4.628;2022-11-20T02:14:06;2.83;;;0.87;;
71600;SDS011;59446;52.192;4.628;2022-11-20T02:16:34;2.13;;;0.85;;
71600;SDS011;59446;52.192;4.628;2022-11-20T02:19:04;2.28;;;1.13;;
71600;SDS011;59446;52.192;4.628;2022-11-20T02:21:39;2.47;;;1.10;;
71600;SDS011;59446;52.192;4.628;2022-11-20T02:24:11;1.60;;;0.93;;
71600;SDS011;59446;52.192;4.628;2022-11-20T02:32:05;1.53;;;0.90;;
71600;SDS011;59446;52.192;4.628;2022-11-20T02:34:30;3.70;;;1.20;;
71600;SDS011;59446;52.192;4.628;2022-11-20T02:36:56;3.40;;;1.17;;
71600;SDS011;59446;52.192;4.628;2022-11-20T02:39:24;2.08;;;0.93;;
71600;SDS011;59446;52.192;4.628;2022-11-20T02:41:55;1.40;;;0.80;;
71600;SDS011;59446;52.192;4.628;2022-11-20T02:44:21;2.20;;;1.13;;
71600;SDS011;59446;52.192;4.628;2022-11-20T02:46:46;1.75;;;0.88;;
71600;SDS011;59446;52.192;4.628;2022-11-20T02:49:12;3.00;;;1.10;;
71600;SDS011;59446;52.192;4.628;2022-11-20T02:51:37;1.67;;;0.83;;
71600;SDS011;59446;52.192;4.628;2022-11-20T02:54:02;1.73;;;0.80;;
71600;SDS011;59446;52.192;4.628;2022-11-20T02:56:28;1.35;;;1.00;;
71600;SDS011;59446;52.192;4.628;2022-11-20T02:58:54;2.00;;;1.00;;
71600;SDS011;59446;52.192;4.628;2022-11-20T03:01:20;1.90;;;0.93;;
71600;SDS011;59446;52.192;4.628;2022-11-20T03:03:46;2.23;;;0.90;;
71600;SDS011;59446;52.192;4.628;2022-11-20T03:06:13;1.70;;;0.80;;
71600;SDS011;59446;52.192;4.628;2022-11-20T03:08:39;2.53;;;1.40;;
71600;SDS011;59446;52.192;4.628;2022-11-20T03:11:05;2.07;;;1.10;;
71600;SDS011;59446;52.192;4.628;2022-11-20T03:13:32;2.08;;;1.00;;
71600;SDS011;59446;52.192;4.628;2022-11-20T03:15:58;0.70;;;0.60;;
71600;SDS011;59446;52.192;4.628;2022-11-20T03:18:30;2.55;;;1.35;;
71600;SDS011;59446;52.192;4.628;2022-11-20T03:20:58;2.10;;;1.00;;
71600;SDS011;59446;52.192;4.628;2022-11-20T03:23:24;1.58;;;0.73;;
71600;SDS011;59446;52.192;4.628;2022-11-20T03:25:50;1.20;;;0.80;;
71600;SDS011;59446;52.192;4.628;2022-11-20T03:28:15;4.10;;;1.23;;
71600;SDS011;59446;52.192;4.628;2022-11-20T03:30:40;2.30;;;1.27;;
71600;SDS011;59446;52.192;4.628;2022-11-20T03:33:06;1.50;;;1.00;;
71600;SDS011;59446;52.192;4.628;2022-11-20T03:35:31;2.13;;;1.03;;
71600;SDS011;59446;52.192;4.628;2022-11-20T03:37:57;1.97;;;1.00;;
71600;SDS011;59446;52.192;4.628;2022-11-20T03:40:22;2.72;;;1.00;;
71600;SDS011;59446;52.192;4.628;2022-11-20T03:42:48;2.77;;;1.10;;
71600;SDS011;59446;52.192;4.628;2022-11-20T03:45:14;2.57;;;1.13;;
71600;SDS011;59446;52.192;4.628;2022-11-20T03:47:40;1.83;;;0.90;;
71600;SDS011;59446;52.192;4.628;2022-11-20T03:50:06;2.53;;;1.00;;
71600;SDS011;59446;52.192;4.628;2022-11-20T03:52:32;2.22;;;1.00;;
71600;SDS011;59446;52.192;4.628;2022-11-20T03:54:58;2.40;;;1.00;;
71600;SDS011;59446;52.192;4.628;2022-11-20T03:57:23;2.03;;;1.00;;
71600;SDS011;59446;52.192;4.628;2022-11-20T03:59:48;2.50;;;0.87;;
71600;SDS011;59446;52.192;4.628;2022-11-20T04:02:14;2.27;;;1.00;;
71600;SDS011;59446;52.192;4.628;2022-11-20T04:04:39;2.35;;;0.80;;
71600;SDS011;59446;52.192;4.628;2022-11-20T04:07:04;2.70;;;1.27;;
71600;SDS011;59446;52.192;4.628;2022-11-20T04:09:30;2.60;;;1.20;;
71600;SDS011;59446;52.192;4.628;2022-11-20T04:11:55;1.13;;;0.83;;
71600;SDS011;59446;52.192;4.628;2022-11-20T04:14:20;1.70;;;1.20;;
71600;SDS011;59446;52.192;4.628;2022-11-20T04:16:46;2.17;;;0.90;;
71600;SDS011;59446;52.192;4.628;2022-11-20T04:19:12;1.55;;;1.00;;
71600;SDS011;59446;52.192;4.628;2022-11-20T04:21:40;1.47;;;0.87;;
71600;SDS011;59446;52.192;4.628;2022-11-20T04:24:06;1.77;;;0.95;;
71600;SDS011;59446;52.192;4.628;2022-11-20T04:26:32;2.63;;;1.33;;
71600;SDS011;59446;52.192;4.628;2022-11-20T04:28:58;1.80;;;1.10;;
71600;SDS011;59446;52.192;4.628;2022-11-20T04:31:27;2.00;;;0.93;;
71600;SDS011;59446;52.192;4.628;2022-11-20T04:33:54;2.25;;;1.17;;
71600;SDS011;59446;52.192;4.628;2022-11-20T04:36:20;2.43;;;1.20;;
71600;SDS011;59446;52.192;4.628;2022-11-20T04:38:51;1.40;;;0.80;;
71600;SDS011;59446;52.192;4.628;2022-11-20T04:41:18;1.23;;;0.80;;
71600;SDS011;59446;52.192;4.628;2022-11-20T04:43:48;1.45;;;0.70;;
71600;SDS011;59446;52.192;4.628;2022-11-20T04:46:15;1.52;;;0.85;;
71600;SDS011;59446;52.192;4.628;2022-11-20T04:48:41;1.85;;;0.98;;
71600;SDS011;59446;52.192;4.628;2022-11-20T04:51:07;2.07;;;1.17;;
71600;SDS011;59446;52.192;4.628;2022-11-20T04:53:32;1.13;;;0.70;;
71600;SDS011;59446;52.192;4.628;2022-11-20T04:56:01;2.00;;;1.03;;
71600;SDS011;59446;52.192;4.628;2022-11-20T04:58:32;2.75;;;0.80;;
71600;SDS011;59446;52.192;4.628;2022-11-20T05:01:09;3.78;;;1.13;;
71600;SDS011;59446;52.192;4.628;2022-11-20T05:03:45;1.77;;;0.90;;
71600;SDS011;59446;52.192;4.628;2022-11-20T05:06:12;2.10;;;1.00;;
71600;SDS011;59446;52.192;4.628;2022-11-20T05:08:38;1.50;;;0.80;;
71600;SDS011;59446;52.192;4.628;2022-11-20T05:11:11;1.50;;;0.90;;
71600;SDS011;59446;52.192;4.628;2022-11-20T05:13:41;2.42;;;1.05;;
71600;SDS011;59446;52.192;4.628;2022-11-20T05:16:08;2.38;;;1.00;;
71600;SDS011;59446;52.192;4.628;2022-11-20T05:18:35;1.77;;;0.93;;
71600;SDS011;59446;52.192;4.628;2022-11-20T05:21:01;2.30;;;1.00;;
71600;SDS011;59446;52.192;4.628;2022-11-20T05:23:27;2.27;;;0.93;;
71600;SDS011;59446;52.192;4.628;2022-11-20T05:25:54;1.67;;;1.02;;
71600;SDS011;59446;52.192;4.628;2022-11-20T05:28:21;2.33;;;1.10;;
71600;SDS011;59446;52.192;4.628;2022-11-20T05:30:47;2.63;;;1.17;;
71600;SDS011;59446;52.192;4.628;2022-11-20T05:33:13;1.33;;;0.80;;
71600;SDS011;59446;52.192;4.628;2022-11-20T05:35:38;2.50;;;1.00;;
71600;SDS011;59446;52.192;4.628;2022-11-20T05:38:03;3.13;;;1.20;;
71600;SDS011;59446;52.192;4.628;2022-11-20T05:40:29;2.37;;;1.20;;
71600;SDS011;59446;52.192;4.628;2022-11-20T05:42:54;2.07;;;0.90;;
71600;SDS011;59446;52.192;4.628;2022-11-20T05:45:19;1.52;;;0.85;;
71600;SDS011;59446;52.192;4.628;2022-11-20T05:47:45;2.43;;;0.97;;
71600;SDS011;59446;52.192;4.628;2022-11-20T05:50:10;1.37;;;0.80;;
71600;SDS011;59446;52.192;4.628;2022-11-20T05:52:35;1.67;;;1.00;;
71600;SDS011;59446;52.192;4.628;2022-11-20T05:55:01;2.80;;;0.90;;
71600;SDS011;59446;52.192;4.628;2022-11-20T05:57:26;1.17;;;0.87;;
71600;SDS011;59446;52.192;4.628;2022-11-20T05:59:52;2.37;;;1.10;;
71600;SDS011;59446;52.192;4.628;2022-11-20T06:02:17;1.90;;;1.00;;
71600;SDS011;59446;52.192;4.628;2022-11-20T06:04:42;1.30;;;0.80;;
71600;SDS011;59446;52.192;4.628;2022-11-20T06:07:08;2.70;;;1.20;;
71600;SDS011;59446;52.192;4.628;2022-11-20T06:09:33;1.73;;;0.90;;
71600;SDS011;59446;52.192;4.628;2022-11-20T06:11:59;2.15;;;1.00;;
71600;SDS011;59446;52.192;4.628;2022-11-20T06:14:24;1.70;;;0.90;;
71600;SDS011;59446;52.192;4.628;2022-11-20T06:16:50;1.60;;;0.90;;
71600;SDS011;59446;52.192;4.628;2022-11-20T06:19:15;2.03;;;1.00;;
71600;SDS011;59446;52.192;4.628;2022-11-20T06:21:41;2.88;;;1.00;;
71600;SDS011;59446;52.192;4.628;2022-11-20T06:24:06;0.97;;;0.70;;
71600;SDS011;59446;52.192;4.628;2022-11-20T06:26:33;2.05;;;1.10;;
71600;SDS011;59446;52.192;4.628;2022-11-20T06:28:59;3.37;;;1.20;;
71600;SDS011;59446;52.192;4.628;2022-11-20T06:31:25;1.63;;;0.80;;
71600;SDS011;59446;52.192;4.628;2022-11-20T06:33:51;1.73;;;0.90;;
71600;SDS011;59446;52.192;4.628;2022-11-20T06:36:17;1.87;;;0.77;;
71600;SDS011;59446;52.192;4.628;2022-11-20T06:38:45;2.15;;;1.25;;
71600;SDS011;59446;52.192;4.628;2022-11-20T06:41:15;1.97;;;0.80;;
71600;SDS011;59446;52.192;4.628;2022-11-20T06:43:42;2.67;;;1.10;;
71600;SDS011;59446;52.192;4.628;2022-11-20T06:46:09;1.67;;;0.88;;
71600;SDS011;59446;52.192;4.628;2022-11-20T06:48:37;1.43;;;0.70;;
71600;SDS011;59446;52.192;4.628;2022-11-20T06:51:03;2.07;;;0.90;;
71600;SDS011;59446;52.192;4.628;2022-11-20T06:53:30;2.43;;;1.30;;
71600;SDS011;59446;52.192;4.628;2022-11-20T06:55:55;0.97;;;0.73;;
71600;SDS011;59446;52.192;4.628;2022-11-20T06:58:22;2.85;;;1.10;;
71600;SDS011;59446;52.192;4.628;2022-11-20T07:00:48;1.88;;;0.82;;
71600;SDS011;59446;52.192;4.628;2022-11-20T07:03:14;1.73;;;1.00;;
71600;SDS011;59446;52.192;4.628;2022-11-20T07:05:39;1.70;;;0.80;;
71600;SDS011;59446;52.192;4.628;2022-11-20T07:08:05;3.08;;;1.33;;
71600;SDS011;59446;52.192;4.628;2022-11-20T07:10:31;1.43;;;0.77;;
71600;SDS011;59446;52.192;4.628;2022-11-20T07:12:57;2.28;;;1.08;;
71600;SDS011;59446;52.192;4.628;2022-11-20T07:15:23;1.77;;;0.87;;
71600;SDS011;59446;52.192;4.628;2022-11-20T07:17:49;2.15;;;1.17;;
71600;SDS011;59446;52.192;4.628;2022-11-20T07:20:15;2.20;;;0.90;;
71600;SDS011;59446;52.192;4.628;2022-11-20T07:22:41;2.40;;;1.00;;
71600;SDS011;59446;52.192;4.628;2022-11-20T07:25:07;2.53;;;1.10;;
71600;SDS011;59446;52.192;4.628;2022-11-20T07:27:33;1.40;;;0.73;;
71600;SDS011;59446;52.192;4.628;2022-11-20T07:29:59;2.05;;;0.85;;
71600;SDS011;59446;52.192;4.628;2022-11-20T07:32:24;1.93;;;0.90;;
71600;SDS011;59446;52.192;4.628;2022-11-20T07:34:50;2.87;;;1.30;;
71600;SDS011;59446;52.192;4.628;2022-11-20T07:37:15;2.30;;;0.90;;
71600;SDS011;59446;52.192;4.628;2022-11-20T07:39:41;1.17;;;0.80;;
71600;SDS011;59446;52.192;4.628;2022-11-20T07:42:06;1.27;;;0.90;;
71600;SDS011;59446;52.192;4.628;2022-11-20T07:44:33;1.65;;;1.00;;
71600;SDS011;59446;52.192;4.628;2022-11-20T07:46:59;1.73;;;1.02;;
71600;SDS011;59446;52.192;4.628;2022-11-20T07:49:24;1.17;;;0.80;;
71600;SDS011;59446;52.192;4.628;2022-11-20T07:51:50;1.67;;;0.87;;
71600;SDS011;59446;52.192;4.628;2022-11-20T07:54:16;1.98;;;0.90;;
71600;SDS011;59446;52.192;4.628;2022-11-20T07:56:41;2.23;;;0.97;;
71600;SDS011;59446;52.192;4.628;2022-11-20T07:59:07;2.10;;;1.00;;
71600;SDS011;59446;52.192;4.628;2022-11-20T08:01:32;2.47;;;1.23;;
71600;SDS011;59446;52.192;4.628;2022-11-20T08:03:57;3.00;;;0.80;;
71600;SDS011;59446;52.192;4.628;2022-11-20T08:06:23;2.00;;;1.00;;
71600;SDS011;59446;52.192;4.628;2022-11-20T08:08:49;2.55;;;1.00;;
71600;SDS011;59446;52.192;4.628;2022-11-20T08:11:15;1.38;;;0.88;;
71600;SDS011;59446;52.192;4.628;2022-11-20T08:13:59;1.53;;;0.70;;
71600;SDS011;59446;52.192;4.628;2022-11-20T08:16:36;2.53;;;1.23;;
71600;SDS011;59446;52.192;4.628;2022-11-20T08:19:02;1.83;;;0.90;;
71600;SDS011;59446;52.192;4.628;2022-11-20T08:21:27;2.23;;;1.00;;
71600;SDS011;59446;52.192;4.628;2022-11-20T08:23:53;2.07;;;1.00;;
71600;SDS011;59446;52.192;4.628;2022-11-20T08:26:18;1.90;;;1.10;;
71600;SDS011;59446;52.192;4.628;2022-11-20T08:28:45;2.63;;;1.00;;
71600;SDS011;59446;52.192;4.628;2022-11-20T08:31:10;2.10;;;1.00;;
71600;SDS011;59446;52.192;4.628;2022-11-20T08:33:36;2.60;;;0.90;;
71600;SDS011;59446;52.192;4.628;2022-11-20T08:36:02;2.63;;;1.03;;
71600;SDS011;59446;52.192;4.628;2022-11-20T08:38:28;2.13;;;1.00;;
71600;SDS011;59446;52.192;4.628;2022-11-20T08:40:58;2.40;;;1.00;;
71600;SDS011;59446;52.192;4.628;2022-11-20T08:43:42;2.50;;;1.20;;
71600;SDS011;59446;52.192;4.628;2022-11-20T08:46:07;2.30;;;1.10;;
71600;SDS011;59446;52.192;4.628;2022-11-20T08:48:33;2.60;;;1.13;;
71600;SDS011;59446;52.192;4.628;2022-11-20T08:50:58;1.77;;;1.00;;
71600;SDS011;59446;52.192;4.628;2022-11-20T08:53:24;2.40;;;1.50;;
71600;SDS011;59446;52.192;4.628;2022-11-20T08:55:50;2.13;;;1.10;;
71600;SDS011;59446;52.192;4.628;2022-11-20T08:58:15;3.07;;;1.60;;
71600;SDS011;59446;52.192;4.628;2022-11-20T09:00:40;0.97;;;0.63;;
71600;SDS011;59446;52.192;4.628;2022-11-20T09:03:06;2.53;;;1.03;;
71600;SDS011;59446;52.192;4.628;2022-11-20T09:05:31;3.17;;;1.27;;
71600;SDS011;59446;52.192;4.628;2022-11-20T09:07:57;1.75;;;0.90;;
71600;SDS011;59446;52.192;4.628;2022-11-20T09:10:23;3.73;;;1.30;;
71600;SDS011;59446;52.192;4.628;2022-11-20T09:12:48;1.87;;;1.00;;
71600;SDS011;59446;52.192;4.628;2022-11-20T09:15:14;2.22;;;1.08;;
71600;SDS011;59446;52.192;4.628;2022-11-20T09:17:40;3.00;;;1.13;;
71600;SDS011;59446;52.192;4.628;2022-11-20T09:20:05;3.83;;;1.40;;
71600;SDS011;59446;52.192;4.628;2022-11-20T09:22:31;2.77;;;1.20;;
71600;SDS011;59446;52.192;4.628;2022-11-20T09:24:56;2.63;;;1.57;;
71600;SDS011;59446;52.192;4.628;2022-11-20T09:27:21;2.58;;;1.50;;
71600;SDS011;59446;52.192;4.628;2022-11-20T09:29:47;1.80;;;0.93;;
71600;SDS011;59446;52.192;4.628;2022-11-20T09:32:12;2.83;;;1.10;;
71600;SDS011;59446;52.192;4.628;2022-11-20T09:34:38;3.13;;;1.30;;
71600;SDS011;59446;52.192;4.628;2022-11-20T09:37:03;3.67;;;1.60;;
71600;SDS011;59446;52.192;4.628;2022-11-20T09:39:28;3.13;;;1.60;;
71600;SDS011;59446;52.192;4.628;2022-11-20T09:44:55;2.80;;;1.40;;
71600;SDS011;59446;52.192;4.628;2022-11-20T09:50:22;3.38;;;1.58;;
71600;SDS011;59446;52.192;4.628;2022-11-20T09:53:04;2.60;;;1.20;;
71600;SDS011;59446;52.192;4.628;2022-11-20T09:55:37;4.15;;;1.73;;
71600;SDS011;59446;52.192;4.628;2022-11-20T09:58:05;4.20;;;1.67;;
71600;SDS011;59446;52.192;4.628;2022-11-20T10:00:32;3.47;;;1.73;;
71600;SDS011;59446;52.192;4.628;2022-11-20T10:03:01;3.05;;;1.42;;
71600;SDS011;59446;52.192;4.628;2022-11-20T10:05:42;4.25;;;1.65;;
71600;SDS011;59446;52.192;4.628;2022-11-20T10:08:30;3.72;;;1.48;;
71600;SDS011;59446;52.192;4.628;2022-11-20T10:11:17;3.67;;;1.53;;
71600;SDS011;59446;52.192;4.628;2022-11-20T10:14:15;1.90;;;1.30;;
71600;SDS011;59446;52.192;4.628;2022-11-20T10:22:22;5.68;;;1.38;;
71600;SDS011;59446;52.192;4.628;2022-11-20T10:25:15;4.88;;;1.50;;
71600;SDS011;59446;52.192;4.628;2022-11-20T10:30:35;2.75;;;1.30;;
71600;SDS011;59446;52.192;4.628;2022-11-20T10:33:08;4.00;;;1.30;;
71600;SDS011;59446;52.192;4.628;2022-11-20T10:38:12;2.73;;;1.50;;
71600;SDS011;59446;52.192;4.628;2022-11-20T10:40:45;2.20;;;1.20;;
71600;SDS011;59446;52.192;4.628;2022-11-20T10:48:26;2.55;;;1.15;;
71600;SDS011;59446;52.192;4.628;2022-11-20T10:53:37;2.13;;;0.93;;
71600;SDS011;59446;52.192;4.628;2022-11-20T10:56:19;3.78;;;1.35;;
71600;SDS011;59446;52.192;4.628;2022-11-20T10:58:52;2.55;;;1.10;;
71600;SDS011;59446;52.192;4.628;2022-11-20T11:01:27;5.25;;;1.50;;
71600;SDS011;59446;52.192;4.628;2022-11-20T11:03:53;2.23;;;1.20;;
71600;SDS011;59446;52.192;4.628;2022-11-20T11:08:58;3.10;;;1.20;;
71600;SDS011;59446;52.192;4.628;2022-11-20T11:11:30;2.97;;;1.65;;
71600;SDS011;59446;52.192;4.628;2022-11-20T11:14:04;3.13;;;1.15;;
71600;SDS011;59446;52.192;4.628;2022-11-20T11:16:33;2.50;;;1.23;;
71600;SDS011;59446;52.192;4.628;2022-11-20T11:19:03;2.35;;;0.95;;
71600;SDS011;59446;52.192;4.628;2022-11-20T11:21:29;3.63;;;1.60;;
71600;SDS011;59446;52.192;4.628;2022-11-20T11:24:02;2.67;;;1.33;;
71600;SDS011;59446;52.192;4.628;2022-11-20T11:26:29;3.17;;;1.17;;
71600;SDS011;59446;52.192;4.628;2022-11-20T11:29:02;2.90;;;1.10;;
71600;SDS011;59446;52.192;4.628;2022-11-20T11:31:32;2.45;;;1.15;;
71600;SDS011;59446;52.192;4.628;2022-11-20T11:34:05;7.35;;;1.38;;
71600;SDS011;59446;52.192;4.628;2022-11-20T11:36:32;3.00;;;1.23;;
71600;SDS011;59446;52.192;4.628;2022-11-20T11:39:00;2.95;;;1.30;;
71600;SDS011;59446;52.192;4.628;2022-11-20T11:41:33;3.50;;;1.00;;
71600;SDS011;59446;52.192;4.628;2022-11-20T11:44:20;2.72;;;1.27;;
71600;SDS011;59446;52.192;4.628;2022-11-20T11:47:05;5.50;;;1.10;;
71600;SDS011;59446;52.192;4.628;2022-11-20T11:49:36;3.10;;;1.20;;
71600;SDS011;59446;52.192;4.628;2022-11-20T11:52:08;2.87;;;1.50;;
71600;SDS011;59446;52.192;4.628;2022-11-20T11:54:58;4.65;;;1.60;;
71600;SDS011;59446;52.192;4.628;2022-11-20T12:00:16;3.03;;;1.37;;
71600;SDS011;59446;52.192;4.628;2022-11-20T12:07:43;4.87;;;1.37;;
71600;SDS011;59446;52.192;4.628;2022-11-20T12:15:56;4.60;;;1.65;;
71600;SDS011;59446;52.192;4.628;2022-11-20T12:18:23;2.07;;;1.10;;
71600;SDS011;59446;52.192;4.628;2022-11-20T12:24:05;2.40;;;1.37;;
71600;SDS011;59446;52.192;4.628;2022-11-20T12:32:44;2.37;;;1.30;;
71600;SDS011;59446;52.192;4.628;2022-11-20T12:44:39;6.78;;;1.98;;
71600;SDS011;59446;52.192;4.628;2022-11-20T12:50:22;3.35;;;1.60;;
71600;SDS011;59446;52.192;4.628;2022-11-20T12:52:57;3.87;;;1.50;;
71600;SDS011;59446;52.192;4.628;2022-11-20T12:55:45;4.03;;;1.95;;
71600;SDS011;59446;52.192;4.628;2022-11-20T12:58:22;4.50;;;1.95;;
71600;SDS011;59446;52.192;4.628;2022-11-20T13:01:03;3.10;;;1.40;;
71600;SDS011;59446;52.192;4.628;2022-11-20T13:03:37;3.47;;;1.55;;
71600;SDS011;59446;52.192;4.628;2022-11-20T13:06:13;4.25;;;1.58;;
71600;SDS011;59446;52.192;4.628;2022-11-20T13:08:53;3.77;;;1.87;;
71600;SDS011;59446;52.192;4.628;2022-11-20T13:11:24;3.53;;;1.73;;
71600;SDS011;59446;52.192;4.628;2022-11-20T13:14:13;4.88;;;1.92;;
71600;SDS011;59446;52.192;4.628;2022-11-20T13:16:58;4.53;;;1.58;;
71600;SDS011;59446;52.192;4.628;2022-11-20T13:19:54;5.87;;;2.00;;
71600;SDS011;59446;52.192;4.628;2022-11-20T13:22:26;2.92;;;1.55;;
71600;SDS011;59446;52.192;4.628;2022-11-20T13:24:52;3.60;;;1.83;;
71600;SDS011;59446;52.192;4.628;2022-11-20T13:27:19;4.57;;;1.80;;
71600;SDS011;59446;52.192;4.628;2022-11-20T13:32:49;3.70;;;1.60;;
71600;SDS011;59446;52.192;4.628;2022-11-20T13:35:23;5.38;;;1.52;;
71600;SDS011;59446;52.192;4.628;2022-11-20T13:38:20;3.72;;;1.85;;
71600;SDS011;59446;52.192;4.628;2022-11-20T13:40:58;3.60;;;1.42;;
71600;SDS011;59446;52.192;4.628;2022-11-20T13:43:44;4.97;;;1.77;;
71600;SDS011;59446;52.192;4.628;2022-11-20T13:46:13;4.65;;;2.10;;
71600;SDS011;59446;52.192;4.628;2022-11-20T13:48:41;6.00;;;2.65;;
71600;SDS011;59446;52.192;4.628;2022-11-20T13:59:13;3.73;;;1.53;;
71600;SDS011;59446;52.192;4.628;2022-11-20T14:01:57;4.03;;;1.73;;
71600;SDS011;59446;52.192;4.628;2022-11-20T14:04:30;3.80;;;1.77;;
71600;SDS011;59446;52.192;4.628;2022-11-20T14:07:01;3.33;;;1.53;;
71600;SDS011;59446;52.192;4.628;2022-11-20T14:09:31;4.45;;;1.60;;
71600;SDS011;59446;52.192;4.628;2022-11-20T14:11:58;4.75;;;2.17;;
71600;SDS011;59446;52.192;4.628;2022-11-20T14:14:24;3.87;;;1.73;;
71600;SDS011;59446;52.192;4.628;2022-11-20T14:17:17;4.72;;;2.05;;
71600;SDS011;59446;52.192;4.628;2022-11-20T14:19:47;5.15;;;2.00;;
71600;SDS011;59446;52.192;4.628;2022-11-20T14:24:45;4.55;;;1.90;;
71600;SDS011;59446;52.192;4.628;2022-11-20T14:27:12;6.32;;;1.90;;
71600;SDS011;59446;52.192;4.628;2022-11-20T14:29:48;5.05;;;2.15;;
71600;SDS011;59446;52.192;4.628;2022-11-20T14:32:19;6.20;;;1.80;;
71600;SDS011;59446;52.192;4.628;2022-11-20T14:34:47;5.78;;;2.00;;
71600;SDS011;59446;52.192;4.628;2022-11-20T14:37:21;5.55;;;2.00;;
71600;SDS011;59446;52.192;4.628;2022-11-20T14:39:50;8.37;;;1.83;;
71600;SDS011;59446;52.192;4.628;2022-11-20T14:42:18;4.88;;;1.80;;
71600;SDS011;59446;52.192;4.628;2022-11-20T14:44:49;3.03;;;1.48;;
71600;SDS011;59446;52.192;4.628;2022-11-20T14:47:21;3.80;;;1.77;;
71600;SDS011;59446;52.192;4.628;2022-11-20T14:49:48;4.07;;;1.85;;
71600;SDS011;59446;52.192;4.628;2022-11-20T14:52:25;3.42;;;1.60;;
71600;SDS011;59446;52.192;4.628;2022-11-20T14:54:53;4.55;;;1.85;;
71600;SDS011;59446;52.192;4.628;2022-11-20T15:00:05;5.28;;;2.38;;
71600;SDS011;59446;52.192;4.628;2022-11-20T15:02:44;4.80;;;1.83;;
71600;SDS011;59446;52.192;4.628;2022-11-20T15:05:11;4.13;;;1.70;;
71600;SDS011;59446;52.192;4.628;2022-11-20T15:07:39;3.65;;;1.80;;
71600;SDS011;59446;52.192;4.628;2022-11-20T15:10:18;14.80;;;1.70;;
71600;SDS011;59446;52.192;4.628;2022-11-20T15:12:49;5.70;;;1.97;;
71600;SDS011;59446;52.192;4.628;2022-11-20T15:15:25;4.07;;;2.00;;
71600;SDS011;59446;52.192;4.628;2022-11-20T15:18:01;6.70;;;2.13;;
71600;SDS011;59446;52.192;4.628;2022-11-20T15:20:29;5.97;;;2.50;;
71600;SDS011;59446;52.192;4.628;2022-11-20T15:22:57;3.83;;;1.60;;
71600;SDS011;59446;52.192;4.628;2022-11-20T15:25:23;5.57;;;2.17;;
71600;SDS011;59446;52.192;4.628;2022-11-20T15:27:50;4.67;;;2.07;;
71600;SDS011;59446;52.192;4.628;2022-11-20T15:30:19;3.70;;;1.67;;
71600;SDS011;59446;52.192;4.628;2022-11-20T15:32:45;4.40;;;1.75;;
71600;SDS011;59446;52.192;4.628;2022-11-20T15:35:12;8.52;;;2.22;;
71600;SDS011;59446;52.192;4.628;2022-11-20T15:37:39;7.47;;;2.40;;
71600;SDS011;59446;52.192;4.628;2022-11-20T15:40:05;5.50;;;1.98;;
71600;SDS011;59446;52.192;4.628;2022-11-20T15:42:32;3.85;;;1.67;;
71600;SDS011;59446;52.192;4.628;2022-11-20T15:44:57;4.97;;;2.03;;
71600;SDS011;59446;52.192;4.628;2022-11-20T15:47:25;4.80;;;1.60;;
71600;SDS011;59446;52.192;4.628;2022-11-20T15:49:54;5.03;;;1.83;;
71600;SDS011;59446;52.192;4.628;2022-11-20T15:52:20;3.70;;;1.80;;
71600;SDS011;59446;52.192;4.628;2022-11-20T15:54:45;5.27;;;2.00;;
71600;SDS011;59446;52.192;4.628;2022-11-20T15:57:11;6.57;;;1.93;;
71600;SDS011;59446;52.192;4.628;2022-11-20T15:59:37;5.50;;;2.38;;
71600;SDS011;59446;52.192;4.628;2022-11-20T16:02:10;4.13;;;1.77;;
71600;SDS011;59446;52.192;4.628;2022-11-20T16:04:37;5.63;;;2.63;;
71600;SDS011;59446;52.192;4.628;2022-11-20T16:07:04;4.27;;;1.87;;
71600;SDS011;59446;52.192;4.628;2022-11-20T16:09:29;4.60;;;2.03;;
71600;SDS011;59446;52.192;4.628;2022-11-20T16:11:55;4.37;;;1.97;;
71600;SDS011;59446;52.192;4.628;2022-11-20T16:14:20;7.90;;;2.30;;
71600;SDS011;59446;52.192;4.628;2022-11-20T16:17:04;4.50;;;2.28;;
71600;SDS011;59446;52.192;4.628;2022-11-20T16:19:29;5.37;;;2.17;;
71600;SDS011;59446;52.192;4.628;2022-11-20T16:21:54;5.73;;;2.33;;
71600;SDS011;59446;52.192;4.628;2022-11-20T16:24:21;5.50;;;2.42;;